Airfield :
LOGIN :

Register | Disclaimer

   EN    FR    IT 

 










Legend :    VFR   Marginal VFR   IFR   Intensive IFR   Very Intensive IFR
Visi :
Ceiling :
>= 8 km
>= 3000ft
5 to 8 km
1000 to 3000 ft
1500m to 5 km
500 to 1000 ft
800 to 1500m
200 to 500 ft
< 800m
< 200 ft
Symbols :   Thunderstorms  Fog  Heavy snow  Heavy precipitations  Wind > 20 kt
SIGMETs :     Misc.  Thunderstorms  Icing  Turbulence  Mountain Waves  Volcanic Ashes







- Airport Elevation : 37 ft
- IATA code : HLY


EGOV - RAF Valley

CURRENT METAR :
  • 121750Z 20026KT 4500 RA SCT009 SCT022 OVC035 07/07 Q1001 RERA GRN

EXPIRED METARs :
  • 121650Z 20027KT 5000 RADZ SCT010 SCT019 OVC033 07/06 Q1002 GRN TEMPO BKN006 YLO1
  • 121645Z 19027KT 5000 RADZ SCT009 BKN019 OVC028 07/06 Q1002 GRN TEMPO 4000 RADZ GRN
  • 121627Z 20025KT 6000 RA SCT021 BKN027 OVC045 07/05 Q1002 WHT BECMG BKN007 GRN
  • 121550Z 21024G34KT 9999 -RA FEW015 OVC045 07/03 Q1002 BLU TEMPO BKN014 GRN
  • 121450Z 21017KT 9999 -RA FEW024 OVC070 07/02 Q1003 RERA BLU TEMPO SCT018 WHT

TAF TAF EGOV
Valid from the 12 at 15:00 until the 12 at 19:00 UTC


121352Z 1215/1219 21023KT 9999 FEW022 SCT030
BECMG 1215/1218 BKN018
TEMPO 1216/1219 7000 RA SCT009
PROB40
TEMPO 1217/1219 4000 RADZ
PROB30 1218/1219 SCT006 BKN009
No reported NOTAMs for that airfield.
1 SIGMET reported for the London FIR (EGTT) :
 
Severe turbulence
EGTT SIGMET 03 VALID 121500/121900 EGRR
EGTT LONDON FIR SEV TURB FCST WI N5100 W00726 - N5207 W00519 - N4934 W00416 - N4926 W00456 - N4901 W00703 - N5100 W00726 FL200/420 MOV E 05KT NC=



MET'MAP, your aeronautical weather chart ! - Copyright ORBIFLY December 2007 - Disclaimer

ORBIFLY MET'MAP TEAM :

Programming & Development : Alexandra Zaïnal
Concept & Development : Baudouin d'Aumeries
Co-Development & Prog : Marc-Olivier Méhu
Technical & hardware support : Manuel Goepfert

Contact : metmap@orbifly.com




SOURCES & CREDITS :

   NOAA